Time;durP1;ratioP1;P1;durP2;ratioP2;P2;SDS_P1;SDS_P2;PMS_P1;PMS_P2;Temp;Humidity;BMP_temperature;BMP_pressure;BME280_temperature;BME280_humidity;BME280_pressure;Samples;Min_cycle;Max_cycle;Signal;HPM_P1;HPM_P2
2023/05/13 00:00:16;;;;;;;6.97;5.65;;;10.70;97.30;;;;;;5113493;28;20019;-73
2023/05/13 00:02:42;;;;;;;8.13;6.32;;;10.70;97.10;;;;;;5111575;28;20390;-73
2023/05/13 00:05:08;;;;;;;8.95;6.28;;;10.70;97.00;;;;;;5112696;28;20020;-73
2023/05/13 00:07:34;;;;;;;9.20;5.95;;;10.70;97.10;;;;;;5109466;28;20427;-72
2023/05/13 00:09:59;;;;;;;8.07;6.93;;;10.70;97.30;;;;;;5105225;28;20080;-73
2023/05/13 00:12:25;;;;;;;10.18;6.78;;;10.70;97.60;;;;;;5115142;28;20439;-72
2023/05/13 00:14:51;;;;;;;7.78;6.32;;;10.70;97.20;;;;;;5113064;28;20028;-73
2023/05/13 00:17:16;;;;;;;10.18;6.70;;;10.70;96.80;;;;;;5113968;28;20031;-72
2023/05/13 00:19:42;;;;;;;7.88;6.55;;;10.70;97.00;;;;;;5093870;28;20042;-73
2023/05/13 00:22:07;;;;;;;9.43;5.97;;;10.70;97.20;;;;;;5110192;28;20424;-73
2023/05/13 00:24:33;;;;;;;8.43;5.70;;;10.60;96.80;;;;;;5111621;28;20053;-72
2023/05/13 00:26:58;;;;;;;10.27;6.72;;;10.60;96.40;;;;;;5110435;28;20027;-73
2023/05/13 00:29:24;;;;;;;7.68;5.75;;;10.60;96.50;;;;;;5112041;28;20356;-73
2023/05/13 00:31:50;;;;;;;7.78;5.65;;;10.70;96.70;;;;;;5114030;28;20424;-73
2023/05/13 00:34:19;;;;;;;9.30;6.40;;;10.70;96.50;;;;;;5117531;28;20035;-73
2023/05/13 00:36:44;;;;;;;8.38;6.18;;;10.70;96.40;;;;;;5098326;28;20447;-73
2023/05/13 00:39:10;;;;;;;8.30;6.60;;;10.70;96.30;;;;;;5115780;28;20031;-72
2023/05/13 00:41:36;;;;;;;9.63;6.28;;;10.60;96.70;;;;;;5113979;28;20483;-72
2023/05/13 00:44:03;;;;;;;9.35;7.55;;;10.60;96.50;;;;;;5117096;28;20059;-72
2023/05/13 00:46:31;;;;;;;9.63;7.55;;;10.50;96.40;;;;;;5117437;28;20074;-72
2023/05/13 00:48:58;;;;;;;8.82;6.45;;;10.50;96.10;;;;;;5117322;28;20059;-74
2023/05/13 00:51:24;;;;;;;8.50;7.10;;;10.50;96.40;;;;;;5097340;28;20324;-73
2023/05/13 00:53:50;;;;;;;10.32;7.30;;;10.40;96.50;;;;;;5115534;27;20027;-73
2023/05/13 00:56:23;;;;;;;10.38;6.93;;;10.40;96.40;;;;;;5113950;27;20032;-72
2023/05/13 00:58:49;;;;;;;9.77;7.05;;;10.30;95.90;;;;;;5116109;28;20031;-72
2023/05/13 01:01:20;;;;;;;7.70;5.82;;;10.30;95.80;;;;;;5115372;28;20024;-73
2023/05/13 01:04:23;;;;;;;10.68;7.10;;;10.30;95.70;;;;;;5113861;28;20142;-73
2023/05/13 01:07:04;;;;;;;7.60;4.80;;;10.20;95.80;;;;;;5114387;28;20436;-72
2023/05/13 01:09:45;;;;;;;8.70;5.47;;;10.10;93.50;;;;;;5096703;28;20024;-72
2023/05/13 01:12:20;;;;;;;8.07;6.20;;;10.10;91.90;;;;;;5116366;28;20030;-72
2023/05/13 01:15:00;;;;;;;9.75;6.03;;;10.00;91.00;;;;;;5090646;28;20088;-72
2023/05/13 01:17:43;;;;;;;8.65;7.00;;;9.90;89.00;;;;;;5116002;28;20024;-72
2023/05/13 01:20:10;;;;;;;12.00;8.90;;;9.70;87.60;;;;;;5112011;28;20063;-72
2023/05/13 01:22:36;;;;;;;14.43;9.68;;;9.60;86.20;;;;;;5098319;27;20116;-72
2023/05/13 01:25:02;;;;;;;12.85;10.60;;;9.60;85.10;;;;;;5113472;27;20023;-72
2023/05/13 01:27:28;;;;;;;13.60;11.40;;;9.50;84.10;;;;;;5098038;28;20403;-72
2023/05/13 01:29:54;;;;;;;13.63;11.88;;;9.40;83.00;;;;;;5114277;28;20026;-73
2023/05/13 01:32:21;;;;;;;17.25;13.55;;;9.40;82.20;;;;;;5117366;28;20015;-73
2023/05/13 01:34:48;;;;;;;14.93;11.68;;;9.40;81.10;;;;;;5114332;28;20063;-73
2023/05/13 01:37:14;;;;;;;15.15;11.98;;;9.30;80.30;;;;;;5096322;28;20030;-73
2023/05/13 01:39:40;;;;;;;13.65;11.77;;;9.30;80.10;;;;;;5111785;28;20107;-72
2023/05/13 01:42:06;;;;;;;13.77;11.73;;;9.30;80.40;;;;;;5115327;28;20331;-72
2023/05/13 01:44:31;;;;;;;14.48;11.38;;;9.30;80.10;;;;;;5115701;28;20015;-72
2023/05/13 01:46:57;;;;;;;11.98;10.77;;;9.30;80.10;;;;;;5113012;28;20052;-73
2023/05/13 01:49:23;;;;;;;11.40;9.90;;;9.30;79.90;;;;;;5116519;28;20038;-72
2023/05/13 01:51:48;;;;;;;11.15;9.25;;;9.40;80.40;;;;;;5113458;28;20031;-72
2023/05/13 01:54:14;;;;;;;11.82;9.50;;;9.40;80.50;;;;;;5114122;28;20020;-72
2023/05/13 01:56:39;;;;;;;12.38;9.77;;;9.50;80.70;;;;;;5114598;28;20048;-72
2023/05/13 01:59:05;;;;;;;14.60;10.43;;;9.50;82.30;;;;;;5115341;28;20024;-73
2023/05/13 02:01:30;;;;;;;11.80;9.88;;;9.50;83.10;;;;;;5112601;28;20880;-73
2023/05/13 02:03:58;;;;;;;11.82;9.60;;;9.50;84.10;;;;;;5115113;28;20020;-72
2023/05/13 02:06:24;;;;;;;12.10;10.18;;;9.60;86.00;;;;;;5113329;28;20019;-72
2023/05/13 02:08:49;;;;;;;12.88;9.77;;;9.60;86.50;;;;;;5112176;28;20027;-72
2023/05/13 02:11:15;;;;;;;10.88;9.20;;;9.60;87.50;;;;;;5095031;28;20024;-72
2023/05/13 02:13:41;;;;;;;11.15;9.88;;;9.60;87.60;;;;;;5110076;27;20148;-72
2023/05/13 02:16:06;;;;;;;11.77;10.20;;;9.60;87.70;;;;;;5114429;28;20031;-73
2023/05/13 02:18:32;;;;;;;10.98;8.65;;;9.60;87.80;;;;;;5111716;28;20038;-72
2023/05/13 02:20:57;;;;;;;11.40;9.13;;;9.60;87.90;;;;;;5109933;28;20032;-73
2023/05/13 02:23:23;;;;;;;10.82;9.05;;;9.60;87.90;;;;;;5109928;27;20027;-73
2023/05/13 02:25:48;;;;;;;11.95;9.43;;;9.60;87.70;;;;;;5093487;28;20077;-73
2023/05/13 02:28:14;;;;;;;12.65;8.95;;;9.70;88.60;;;;;;5112174;28;20457;-73
2023/05/13 02:30:40;;;;;;;10.65;9.02;;;9.70;88.40;;;;;;5094420;28;20020;-73
2023/05/13 02:33:06;;;;;;;9.65;8.40;;;9.70;88.70;;;;;;5114991;28;20382;-72
2023/05/13 02:35:31;;;;;;;10.10;8.13;;;9.70;88.40;;;;;;5114023;28;20019;-73
2023/05/13 02:37:57;;;;;;;11.00;7.55;;;9.80;88.20;;;;;;5113195;28;20027;-73
2023/05/13 02:40:23;;;;;;;11.05;8.35;;;9.80;89.00;;;;;;5112440;28;20023;-73
2023/05/13 02:42:49;;;;;;;12.43;9.32;;;9.70;88.90;;;;;;5115311;28;20067;-73
2023/05/13 02:45:15;;;;;;;11.35;10.10;;;9.70;87.90;;;;;;5110751;28;20024;-73
2023/05/13 02:47:41;;;;;;;13.45;10.10;;;9.60;87.70;;;;;;5114627;28;20016;-73
2023/05/13 02:50:08;;;;;;;14.85;10.05;;;9.60;87.00;;;;;;5108587;28;20067;-72
2023/05/13 02:52:35;;;;;;;10.85;9.15;;;9.60;86.50;;;;;;5110165;27;20031;-73
2023/05/13 02:55:05;;;;;;;11.68;10.15;;;9.60;86.40;;;;;;5110704;28;20069;-73
2023/05/13 02:57:31;;;;;;;15.05;12.40;;;9.60;86.40;;;;;;5110619;28;21860;-72
2023/05/13 02:59:57;;;;;;;13.25;11.80;;;9.50;86.30;;;;;;5107501;28;20032;-73
2023/05/13 03:02:22;;;;;;;16.17;13.55;;;9.50;86.60;;;;;;5110116;28;20257;-73
2023/05/13 03:04:48;;;;;;;16.90;14.25;;;9.40;85.10;;;;;;5096393;28;20439;-72
2023/05/13 03:07:13;;;;;;;17.50;13.95;;;9.40;84.50;;;;;;5113749;28;20032;-73
2023/05/13 03:09:41;;;;;;;14.70;12.82;;;9.30;83.50;;;;;;5093712;28;20024;-73
2023/05/13 03:12:07;;;;;;;17.00;14.98;;;9.30;82.60;;;;;;5117440;28;20020;-73
2023/05/13 03:14:36;;;;;;;18.35;14.93;;;9.30;82.50;;;;;;5112372;28;20201;-73
2023/05/13 03:17:05;;;;;;;14.75;13.15;;;9.30;81.60;;;;;;5115431;28;20036;-73
2023/05/13 03:19:33;;;;;;;17.58;15.68;;;9.30;80.30;;;;;;5117156;27;20038;-73
2023/05/13 03:21:58;;;;;;;15.75;12.82;;;9.30;80.70;;;;;;5099099;28;20107;-72
2023/05/13 03:24:24;;;;;;;15.07;13.38;;;9.30;79.00;;;;;;5112072;28;20057;-73
2023/05/13 03:26:49;;;;;;;17.13;13.07;;;9.30;78.60;;;;;;5114163;28;20100;-73
2023/05/13 03:29:15;;;;;;;14.65;12.05;;;9.40;78.80;;;;;;5112515;28;20144;-73
2023/05/13 03:31:40;;;;;;;13.50;11.23;;;9.40;79.20;;;;;;5114834;28;20089;-73
2023/05/13 03:34:06;;;;;;;12.93;11.13;;;9.50;79.80;;;;;;5112591;28;20023;-73
2023/05/13 03:36:35;;;;;;;13.93;12.00;;;9.60;81.50;;;;;;5114818;28;20032;-73
2023/05/13 03:39:01;;;;;;;23.33;19.00;;;9.50;81.80;;;;;;5110624;28;20100;-72
2023/05/13 03:41:27;;;;;;;16.33;14.55;;;9.50;82.50;;;;;;5113481;28;20040;-72
2023/05/13 03:43:53;;;;;;;14.77;12.88;;;9.60;82.50;;;;;;5115648;28;20024;-74
2023/05/13 03:46:20;;;;;;;17.17;11.60;;;9.60;82.00;;;;;;5111339;28;20032;-74
2023/05/13 03:48:45;;;;;;;12.93;10.98;;;9.60;82.10;;;;;;5112887;28;20019;-73
2023/05/13 03:51:11;;;;;;;13.10;11.02;;;9.60;83.10;;;;;;5113678;28;20020;-73
2023/05/13 03:53:39;;;;;;;12.23;10.18;;;9.60;83.50;;;;;;5092734;28;20126;-73
2023/05/13 03:56:05;;;;;;;13.13;11.27;;;9.70;83.30;;;;;;5113491;28;20043;-73
2023/05/13 03:58:30;;;;;;;14.48;12.43;;;9.70;84.50;;;;;;5112189;28;20027;-73
2023/05/13 04:00:59;;;;;;;14.63;10.48;;;9.60;83.60;;;;;;5114377;28;20023;-73
2023/05/13 04:03:24;;;;;;;14.77;10.75;;;9.50;82.60;;;;;;5107444;28;20032;-72
2023/05/13 04:05:51;;;;;;;11.18;9.90;;;9.60;83.20;;;;;;5108333;28;20038;-73
2023/05/13 04:08:16;;;;;;;13.48;9.90;;;9.60;82.90;;;;;;5110112;28;20035;-73
2023/05/13 04:10:42;;;;;;;12.73;10.65;;;9.60;82.80;;;;;;5113769;28;20320;-73
2023/05/13 04:13:08;;;;;;;13.30;10.93;;;9.70;83.70;;;;;;5114220;28;20293;-73
2023/05/13 04:15:34;;;;;;;14.18;12.27;;;9.70;84.50;;;;;;5112547;28;20080;-72
2023/05/13 04:17:59;;;;;;;13.10;10.80;;;9.60;85.70;;;;;;5109377;28;20032;-73
2023/05/13 04:20:25;;;;;;;14.93;12.15;;;9.60;85.30;;;;;;5109192;28;20074;-72
2023/05/13 04:22:51;;;;;;;12.98;10.05;;;9.60;85.70;;;;;;5094871;28;20442;-73
2023/05/13 04:25:16;;;;;;;11.30;9.52;;;9.70;86.60;;;;;;5112946;28;20028;-73
2023/05/13 04:27:42;;;;;;;13.45;11.98;;;9.70;87.30;;;;;;5111871;28;20031;-73
2023/05/13 04:30:08;;;;;;;13.00;11.18;;;9.70;88.80;;;;;;5110001;28;20051;-73
2023/05/13 04:32:34;;;;;;;12.50;10.32;;;9.70;90.00;;;;;;5111192;28;20439;-73
2023/05/13 04:35:00;;;;;;;14.60;12.50;;;9.60;89.00;;;;;;5114429;28;20032;-73
2023/05/13 04:37:26;;;;;;;13.70;11.52;;;9.60;89.00;;;;;;5087141;28;20054;-73
2023/05/13 04:39:51;;;;;;;16.27;13.73;;;9.60;88.60;;;;;;5095660;28;20320;-73
2023/05/13 04:42:17;;;;;;;12.35;10.38;;;9.60;90.10;;;;;;5112830;28;20023;-72
2023/05/13 04:44:43;;;;;;;13.38;11.27;;;9.60;89.00;;;;;;5113689;28;20404;-73
2023/05/13 04:47:08;;;;;;;16.83;11.95;;;9.60;88.70;;;;;;5112181;28;20016;-73
2023/05/13 04:49:34;;;;;;;15.02;12.20;;;9.60;88.40;;;;;;5101953;28;20129;-73
2023/05/13 04:52:01;;;;;;;14.77;12.63;;;9.60;87.20;;;;;;5114041;28;20439;-73
2023/05/13 04:54:27;;;;;;;15.07;13.23;;;9.70;86.70;;;;;;5113136;28;20032;-73
2023/05/13 04:56:52;;;;;;;16.95;13.73;;;9.70;85.90;;;;;;5114553;28;20044;-73
2023/05/13 04:59:18;;;;;;;17.00;13.20;;;9.60;83.80;;;;;;5114041;28;20055;-73
2023/05/13 05:01:44;;;;;;;17.30;13.20;;;9.50;82.10;;;;;;5111776;28;20443;-73
2023/05/13 05:04:10;;;;;;;16.40;12.98;;;9.50;81.50;;;;;;5114055;28;20053;-72
2023/05/13 05:06:35;;;;;;;17.48;13.40;;;9.40;80.90;;;;;;5111677;28;20031;-73
2023/05/13 05:09:01;;;;;;;15.95;13.48;;;9.40;79.40;;;;;;5109453;28;20023;-72
2023/05/13 05:11:26;;;;;;;18.23;15.23;;;9.40;79.20;;;;;;5094630;28;20178;-72
2023/05/13 05:13:55;;;;;;;18.40;14.13;;;9.30;78.70;;;;;;5096977;28;20511;-73
2023/05/13 05:16:21;;;;;;;15.77;13.55;;;9.30;77.50;;;;;;5113197;28;20065;-73
2023/05/13 05:18:46;;;;;;;19.58;14.88;;;9.30;76.90;;;;;;5114022;28;20028;-72
2023/05/13 05:21:12;;;;;;;13.95;11.95;;;9.30;76.20;;;;;;5113128;28;20028;-73
2023/05/13 05:23:38;;;;;;;19.70;15.00;;;9.30;75.20;;;;;;5115668;28;20031;-73
2023/05/13 05:26:04;;;;;;;15.90;13.45;;;9.30;77.70;;;;;;5117692;28;20148;-72
2023/05/13 05:28:29;;;;;;;12.98;11.18;;;9.30;77.50;;;;;;5097524;28;20020;-73
2023/05/13 05:30:55;;;;;;;21.20;16.85;;;9.40;77.60;;;;;;5117101;28;20320;-73
2023/05/13 05:33:21;;;;;;;17.83;14.98;;;9.40;78.60;;;;;;5117293;28;20035;-73
2023/05/13 05:35:47;;;;;;;19.85;15.95;;;9.30;79.00;;;;;;5113778;28;20031;-73
2023/05/13 05:38:13;;;;;;;13.55;11.50;;;9.40;79.60;;;;;;5114960;28;20031;-72
2023/05/13 05:40:41;;;;;;;14.15;12.57;;;9.40;79.20;;;;;;5115704;28;20068;-73
2023/05/13 05:43:07;;;;;;;13.30;11.13;;;9.40;79.90;;;;;;5116125;28;20739;-72
2023/05/13 05:45:36;;;;;;;17.65;11.23;;;9.40;80.30;;;;;;5112735;28;20398;-73
2023/05/13 05:48:02;;;;;;;13.60;11.30;;;9.40;81.20;;;;;;5107110;28;20054;-72
2023/05/13 05:50:28;;;;;;;11.52;10.02;;;9.30;81.90;;;;;;5116684;28;20054;-74
2023/05/13 05:52:54;;;;;;;11.30;10.05;;;9.30;82.50;;;;;;5112990;28;20368;-73
2023/05/13 05:55:20;;;;;;;13.65;10.68;;;9.30;80.90;;;;;;5115612;28;20024;-72
2023/05/13 05:57:45;;;;;;;14.73;10.05;;;9.30;82.00;;;;;;5115281;28;20031;-73
2023/05/13 06:00:12;;;;;;;10.75;8.98;;;9.20;81.60;;;;;;5116216;28;20035;-73
2023/05/13 06:02:38;;;;;;;12.80;9.55;;;9.30;81.20;;;;;;5115312;28;20020;-73
2023/05/13 06:05:06;;;;;;;12.55;10.75;;;9.20;81.90;;;;;;5112692;28;20399;-72
2023/05/13 06:07:32;;;;;;;20.23;13.50;;;9.30;82.00;;;;;;5113780;28;20053;-72
2023/05/13 06:09:58;;;;;;;13.02;9.82;;;9.30;81.80;;;;;;5110084;28;20099;-73
2023/05/13 06:12:23;;;;;;;10.20;8.15;;;9.40;83.30;;;;;;5110896;28;20447;-73
2023/05/13 06:14:49;;;;;;;10.35;7.78;;;9.50;83.10;;;;;;5098347;28;20244;-72
2023/05/13 06:17:15;;;;;;;10.68;8.50;;;9.50;84.30;;;;;;5114365;28;20028;-73
2023/05/13 06:19:43;;;;;;;10.82;8.27;;;9.60;86.10;;;;;;5111606;28;20471;-73
2023/05/13 06:22:10;;;;;;;10.35;8.65;;;9.60;87.10;;;;;;5112627;28;20019;-73
2023/05/13 06:24:37;;;;;;;12.27;9.05;;;9.70;87.00;;;;;;5117459;27;20178;-73
2023/05/13 06:27:03;;;;;;;13.07;9.55;;;9.80;88.50;;;;;;5110339;28;20116;-73
2023/05/13 06:29:29;;;;;;;9.45;7.78;;;9.80;88.40;;;;;;5114005;28;20106;-72
2023/05/13 06:31:55;;;;;;;10.25;8.05;;;9.80;88.80;;;;;;5094160;28;20027;-73
2023/05/13 06:34:20;;;;;;;8.75;6.75;;;9.90;90.10;;;;;;5112691;28;20028;-72
2023/05/13 06:36:46;;;;;;;12.38;8.07;;;10.00;90.20;;;;;;5109961;28;20028;-72
2023/05/13 06:39:12;;;;;;;11.13;7.80;;;10.10;90.20;;;;;;5112544;28;20062;-74
2023/05/13 06:41:39;;;;;;;12.57;7.80;;;10.20;90.50;;;;;;5116576;28;20073;-74
2023/05/13 06:44:05;;;;;;;9.55;7.22;;;10.50;92.90;;;;;;5116094;28;20373;-73
2023/05/13 06:46:33;;;;;;;11.48;6.82;;;10.60;94.00;;;;;;5098354;28;20319;-73
2023/05/13 06:49:00;;;;;;;8.65;6.57;;;10.70;95.00;;;;;;5099201;28;20028;-73
2023/05/13 06:51:26;;;;;;;10.25;6.57;;;10.80;95.90;;;;;;5097803;28;20036;-73
2023/05/13 06:53:52;;;;;;;9.63;7.55;;;10.70;95.80;;;;;;5116654;28;20024;-73
2023/05/13 06:56:18;;;;;;;9.55;7.10;;;10.60;96.20;;;;;;5115045;28;20039;-74
2023/05/13 06:58:44;;;;;;;12.00;7.53;;;10.50;94.80;;;;;;5111919;28;20020;-73
2023/05/13 07:01:10;;;;;;;13.93;6.95;;;10.40;94.40;;;;;;5114529;28;20301;-73
2023/05/13 07:03:36;;;;;;;10.23;7.95;;;10.30;94.10;;;;;;5095470;28;20119;-73
2023/05/13 07:06:03;;;;;;;8.05;6.90;;;10.30;93.10;;;;;;5114853;28;20016;-73
2023/05/13 07:08:29;;;;;;;13.70;8.60;;;10.30;94.10;;;;;;5116249;28;20285;-73
2023/05/13 07:10:54;;;;;;;11.07;7.82;;;10.40;94.80;;;;;;5114742;28;20028;-72
2023/05/13 07:13:21;;;;;;;8.77;7.00;;;10.30;94.70;;;;;;5112574;28;20089;-73
2023/05/13 07:15:46;;;;;;;9.90;7.85;;;10.30;94.30;;;;;;5112343;28;20024;-74
2023/05/13 07:18:12;;;;;;;10.27;8.00;;;10.20;94.60;;;;;;5105030;28;20458;-73
2023/05/13 07:20:38;;;;;;;12.70;8.63;;;10.00;94.20;;;;;;5110115;28;20027;-74
2023/05/13 07:23:03;;;;;;;13.40;9.27;;;9.80;92.70;;;;;;5114644;27;20385;-72
2023/05/13 07:25:29;;;;;;;11.20;7.28;;;9.70;92.00;;;;;;5114663;28;20027;-72
2023/05/13 07:27:55;;;;;;;10.25;8.55;;;9.80;91.50;;;;;;5117009;28;20059;-72
2023/05/13 07:30:20;;;;;;;8.45;7.22;;;9.80;92.00;;;;;;5113563;28;20042;-73
2023/05/13 07:32:46;;;;;;;10.93;8.90;;;9.70;91.90;;;;;;5115494;28;20122;-73
2023/05/13 07:35:12;;;;;;;11.77;7.55;;;9.80;91.40;;;;;;5116291;28;20032;-73
2023/05/13 07:37:37;;;;;;;10.00;7.28;;;9.90;91.60;;;;;;5096882;28;20031;-73
2023/05/13 07:40:05;;;;;;;9.57;7.60;;;10.00;93.60;;;;;;5115116;28;20431;-73
2023/05/13 07:42:31;;;;;;;9.90;7.82;;;10.00;93.80;;;;;;5110291;28;20040;-72
2023/05/13 07:44:56;;;;;;;9.23;7.07;;;10.10;94.00;;;;;;5112582;28;20312;-73
2023/05/13 07:47:22;;;;;;;12.38;8.27;;;10.10;93.90;;;;;;5114277;28;20055;-72
2023/05/13 07:49:48;;;;;;;13.13;8.35;;;10.10;94.70;;;;;;5112338;28;20023;-72
2023/05/13 07:52:14;;;;;;;8.50;7.10;;;10.10;94.80;;;;;;5107567;28;20030;-73
2023/05/13 07:54:39;;;;;;;10.82;8.63;;;10.00;94.00;;;;;;5113135;28;20078;-72
2023/05/13 07:57:05;;;;;;;8.90;7.50;;;10.10;95.20;;;;;;5111681;28;20035;-72
2023/05/13 07:59:32;;;;;;;14.07;9.98;;;9.90;94.50;;;;;;5110661;27;20028;-73
2023/05/13 08:01:58;;;;;;;13.13;8.60;;;9.90;94.70;;;;;;5116998;28;20036;-73
2023/05/13 08:04:24;;;;;;;9.43;7.22;;;10.00;93.70;;;;;;5111040;28;20024;-72
2023/05/13 08:06:50;;;;;;;11.40;7.28;;;10.10;94.50;;;;;;5112325;27;20035;-73
2023/05/13 08:09:15;;;;;;;9.98;7.35;;;10.30;94.30;;;;;;5099059;28;20481;-73
2023/05/13 08:11:41;;;;;;;10.18;7.50;;;10.50;95.70;;;;;;5107099;28;20032;-73
2023/05/13 08:14:07;;;;;;;10.93;6.80;;;10.50;97.80;;;;;;5107503;28;20325;-73
2023/05/13 08:16:36;;;;;;;15.52;8.75;;;10.60;97.30;;;;;;5107463;28;20438;-73
2023/05/13 08:19:02;;;;;;;9.77;6.95;;;10.60;96.70;;;;;;5102287;28;20439;-73
2023/05/13 08:21:28;;;;;;;9.93;7.80;;;10.50;96.40;;;;;;5104529;28;20023;-73
2023/05/13 08:23:54;;;;;;;10.40;7.35;;;10.50;96.90;;;;;;5112724;28;20057;-73
2023/05/13 08:26:19;;;;;;;10.65;7.15;;;10.40;96.60;;;;;;5108907;28;20046;-73
2023/05/13 08:28:45;;;;;;;9.55;6.82;;;10.40;96.30;;;;;;5107716;28;20032;-73
2023/05/13 08:31:11;;;;;;;9.75;7.30;;;10.60;96.50;;;;;;5110900;28;20024;-73
2023/05/13 08:33:37;;;;;;;14.35;8.13;;;10.70;97.70;;;;;;5114843;28;20095;-73
2023/05/13 08:36:02;;;;;;;9.25;6.40;;;10.80;97.80;;;;;;5112136;28;20032;-73
2023/05/13 08:38:28;;;;;;;9.43;7.13;;;10.90;98.00;;;;;;5111572;28;20023;-73
2023/05/13 08:40:53;;;;;;;9.82;6.13;;;11.10;98.00;;;;;;5114019;28;20035;-73
2023/05/13 08:43:21;;;;;;;7.85;6.32;;;11.20;98.00;;;;;;5105181;28;20039;-73
2023/05/13 08:45:49;;;;;;;10.38;6.82;;;11.30;98.00;;;;;;5108250;28;20018;-73
2023/05/13 08:48:15;;;;;;;11.30;6.97;;;11.20;98.00;;;;;;5095346;28;20031;-73
2023/05/13 08:50:41;;;;;;;10.20;7.65;;;11.10;98.00;;;;;;5091728;28;20051;-73
2023/05/13 08:53:10;;;;;;;10.43;7.35;;;11.00;98.00;;;;;;5116781;28;20038;-73
2023/05/13 08:55:38;;;;;;;8.00;6.60;;;10.80;98.00;;;;;;5119366;28;20024;-73
2023/05/13 08:58:07;;;;;;;11.57;7.32;;;10.70;98.00;;;;;;5118654;27;20032;-73
2023/05/13 09:00:33;;;;;;;13.38;7.97;;;10.70;97.90;;;;;;5105937;28;20031;-73
2023/05/13 09:03:00;;;;;;;16.30;9.15;;;10.90;98.00;;;;;;5117861;28;20401;-73
2023/05/13 09:05:26;;;;;;;11.13;7.75;;;11.00;98.00;;;;;;5114093;28;20028;-74
2023/05/13 09:07:52;;;;;;;13.60;8.73;;;11.20;98.00;;;;;;5113606;28;20051;-73
2023/05/13 09:10:18;;;;;;;14.52;8.90;;;11.40;98.00;;;;;;5114671;28;20024;-73
2023/05/13 09:12:49;;;;;;;13.98;9.10;;;11.40;98.00;;;;;;5101825;27;20024;-73
2023/05/13 09:15:17;;;;;;;12.50;8.30;;;11.30;98.00;;;;;;5094679;28;20065;-73
2023/05/13 09:17:46;;;;;;;9.13;6.70;;;11.30;98.00;;;;;;5126401;27;20034;-73
2023/05/13 09:20:14;;;;;;;11.57;7.75;;;11.20;98.00;;;;;;5108115;27;20031;-73
2023/05/13 09:22:51;;;;;;;12.77;8.38;;;11.10;98.00;;;;;;5106885;27;20034;-73
2023/05/13 09:25:18;;;;;;;17.50;8.43;;;11.20;98.00;;;;;;5101918;28;20027;-73
2023/05/13 09:27:51;;;;;;;11.15;8.20;;;11.20;98.00;;;;;;5108390;27;20424;-74
2023/05/13 09:30:19;;;;;;;11.32;8.07;;;11.30;98.00;;;;;;5095866;27;20132;-73
2023/05/13 09:33:07;;;;;;;11.32;8.27;;;11.20;98.00;;;;;;5098969;28;20031;-73
2023/05/13 09:35:34;;;;;;;16.30;8.20;;;11.00;98.00;;;;;;5109561;27;20031;-74
2023/05/13 09:38:15;;;;;;;11.00;6.97;;;11.20;98.00;;;;;;5113770;27;20027;-74
2023/05/13 09:40:48;;;;;;;10.18;6.38;;;11.30;98.00;;;;;;5110336;28;20068;-73
2023/05/13 09:43:19;;;;;;;10.05;7.03;;;11.40;98.00;;;;;;5104856;27;20113;-74
2023/05/13 09:45:44;;;;;;;10.75;7.45;;;11.60;98.00;;;;;;5105765;28;20102;-74
2023/05/13 09:48:13;;;;;;;10.90;8.00;;;11.60;98.00;;;;;;5113369;28;20115;-74
2023/05/13 09:50:48;;;;;;;10.73;7.40;;;11.60;98.00;;;;;;5107853;28;20100;-74
2023/05/13 09:53:15;;;;;;;10.43;7.85;;;11.50;98.00;;;;;;5103442;28;20027;-73
2023/05/13 09:55:48;;;;;;;12.50;7.80;;;11.40;98.00;;;;;;5113255;28;20020;-73
2023/05/13 09:58:15;;;;;;;12.23;6.70;;;11.50;98.00;;;;;;5113650;28;20039;-73
2023/05/13 10:00:42;;;;;;;9.02;6.82;;;11.60;98.00;;;;;;5112433;27;20077;-74
2023/05/13 10:03:14;;;;;;;12.25;7.30;;;11.70;98.00;;;;;;5114774;28;20044;-74
2023/05/13 10:05:40;;;;;;;13.80;7.32;;;11.90;98.00;;;;;;5113651;28;20015;-73
2023/05/13 10:08:11;;;;;;;11.88;7.75;;;11.90;98.00;;;;;;5097537;28;20104;-73
2023/05/13 10:10:37;;;;;;;13.57;8.57;;;11.60;98.00;;;;;;5117464;28;20054;-74
2023/05/13 10:13:12;;;;;;;15.15;8.55;;;11.60;98.00;;;;;;5114084;28;20027;-73
2023/05/13 10:15:51;;;;;;;10.13;7.22;;;11.70;98.00;;;;;;5115607;28;20482;-73
2023/05/13 10:18:25;;;;;;;12.30;8.38;;;11.70;98.00;;;;;;5111011;28;20158;-74
2023/05/13 10:20:54;;;;;;;;;;;11.70;98.00;;;;;;5097504;28;20424;-74
2023/05/13 10:23:23;;;;;;;12.23;7.65;;;11.80;98.00;;;;;;5099559;28;19934;-73
2023/05/13 10:25:50;;;;;;;14.50;8.93;;;11.70;98.00;;;;;;5095670;28;20024;-74
2023/05/13 10:28:16;;;;;;;12.30;8.20;;;11.60;98.00;;;;;;5110481;28;20012;-74
2023/05/13 10:30:43;;;;;;;15.30;8.73;;;11.40;98.00;;;;;;5112422;28;20046;-73
2023/05/13 10:33:09;;;;;;;11.57;7.65;;;11.20;98.00;;;;;;5113662;28;20038;-73
2023/05/13 10:35:37;;;;;;;14.80;8.63;;;11.10;98.00;;;;;;5104339;28;20031;-74
2023/05/13 10:38:26;;;;;;;12.35;8.95;;;11.30;98.00;;;;;;5106745;28;20038;-73
2023/05/13 10:41:09;;;;;;;12.93;8.07;;;11.30;98.00;;;;;;5078575;28;20036;-74
2023/05/13 10:43:35;;;;;;;12.32;8.25;;;11.30;98.00;;;;;;5115471;28;20024;-74
2023/05/13 10:46:03;;;;;;;12.43;8.13;;;11.30;98.00;;;;;;5112967;28;20115;-73
2023/05/13 10:49:02;;;;;;;13.32;8.90;;;11.20;98.00;;;;;;5095491;28;20032;-74
2023/05/13 10:51:27;;;;;;;12.90;8.07;;;11.30;98.00;;;;;;5081944;28;20104;-74
2023/05/13 10:53:55;;;;;;;12.23;8.77;;;11.30;98.00;;;;;;5111822;28;20027;-72
2023/05/13 10:56:23;;;;;;;13.95;8.63;;;11.40;98.00;;;;;;5114186;28;20036;-73
2023/05/13 10:59:01;;;;;;;13.77;9.25;;;11.50;98.00;;;;;;5115058;28;20031;-72
2023/05/13 11:01:35;;;;;;;12.60;8.23;;;11.50;98.00;;;;;;5101481;28;20032;-73
2023/05/13 11:04:03;;;;;;;11.05;7.55;;;11.60;98.00;;;;;;5115061;28;20019;-73
2023/05/13 11:06:34;;;;;;;11.10;8.07;;;11.60;98.00;;;;;;5116504;28;20028;-72
2023/05/13 11:09:12;;;;;;;12.50;8.07;;;11.50;98.00;;;;;;5114545;28;20069;-72
2023/05/13 11:11:38;;;;;;;12.55;8.65;;;11.40;98.00;;;;;;5116211;28;20039;-73
2023/05/13 11:14:18;;;;;;;10.13;7.65;;;11.40;98.00;;;;;;5109987;27;20242;-73
2023/05/13 11:17:00;;;;;;;12.15;7.65;;;11.40;98.00;;;;;;5113427;28;20408;-73
2023/05/13 11:19:34;;;;;;;12.75;9.15;;;11.50;98.00;;;;;;5100111;28;20026;-73
2023/05/13 11:22:20;;;;;;;11.75;8.32;;;11.40;98.00;;;;;;5114007;28;20073;-73
2023/05/13 11:25:04;;;;;;;10.07;7.50;;;11.50;98.00;;;;;;5100569;28;20081;-73
2023/05/13 11:27:37;;;;;;;11.97;8.40;;;11.40;98.00;;;;;;5095682;27;20048;-73
2023/05/13 11:30:06;;;;;;;11.73;8.90;;;11.40;98.00;;;;;;5124490;27;20265;-73
2023/05/13 11:32:52;;;;;;;10.88;7.20;;;11.30;98.00;;;;;;5119619;27;20285;-73
2023/05/13 11:35:23;;;;;;;11.80;7.03;;;11.30;98.00;;;;;;5114376;28;20028;-73
2023/05/13 11:37:48;;;;;;;9.43;6.82;;;11.50;98.00;;;;;;5113189;28;20027;-72
2023/05/13 11:40:21;;;;;;;11.55;7.28;;;11.80;98.00;;;;;;5115247;27;20471;-72
2023/05/13 11:42:47;;;;;;;11.15;8.10;;;12.00;98.00;;;;;;5114257;28;20028;-73
2023/05/13 11:45:12;;;;;;;10.45;7.07;;;12.00;98.00;;;;;;5110155;28;20073;-73
2023/05/13 11:47:38;;;;;;;11.52;7.70;;;11.70;98.00;;;;;;5097824;28;20412;-74
2023/05/13 11:50:18;;;;;;;10.45;8.18;;;11.70;98.00;;;;;;5110582;28;20347;-74
2023/05/13 11:52:49;;;;;;;9.90;7.40;;;11.90;98.00;;;;;;5098033;28;20027;-73
2023/05/13 11:55:24;;;;;;;12.25;8.77;;;11.90;98.00;;;;;;5087750;28;20378;-74
2023/05/13 11:57:50;;;;;;;10.00;7.88;;;11.90;98.00;;;;;;5110896;28;20032;-72
2023/05/13 12:00:16;;;;;;;9.90;7.53;;;11.80;98.00;;;;;;5116214;28;20106;-72
2023/05/13 12:02:43;;;;;;;11.80;6.88;;;11.80;98.00;;;;;;5117839;27;20097;-73
2023/05/13 12:05:10;;;;;;;12.55;8.57;;;11.80;98.00;;;;;;5120902;27;20016;-73
2023/05/13 12:07:37;;;;;;;8.63;6.90;;;11.90;98.00;;;;;;5111848;28;20019;-72
2023/05/13 12:10:04;;;;;;;10.15;7.20;;;11.90;98.00;;;;;;5115441;28;20050;-72
2023/05/13 12:12:33;;;;;;;10.50;7.35;;;12.00;98.00;;;;;;5114179;28;20119;-72
2023/05/13 12:15:02;;;;;;;8.75;6.88;;;12.20;98.00;;;;;;5089198;28;20019;-72
2023/05/13 12:17:30;;;;;;;9.55;6.95;;;12.20;98.00;;;;;;5108859;28;20074;-73
2023/05/13 12:20:11;;;;;;;8.65;6.68;;;12.20;98.00;;;;;;5113265;28;20165;-73
2023/05/13 12:22:46;;;;;;;8.95;6.93;;;12.30;98.00;;;;;;5113529;28;20027;-73
2023/05/13 12:25:39;;;;;;;9.23;6.95;;;12.30;98.00;;;;;;5105139;28;20020;-73
2023/05/13 12:28:10;;;;;;;10.02;7.40;;;12.50;98.00;;;;;;5115281;28;20080;-74
2023/05/13 12:30:37;;;;;;;9.20;6.20;;;12.60;98.00;;;;;;5114247;28;20016;-74
2023/05/13 12:33:05;;;;;;;11.20;5.60;;;12.80;98.00;;;;;;5087599;28;20067;-72
2023/05/13 12:35:32;;;;;;;8.55;6.10;;;13.00;98.00;;;;;;5110659;28;20028;-72
2023/05/13 12:38:09;;;;;;;9.90;6.93;;;12.90;97.70;;;;;;5110740;28;20020;-75
2023/05/13 12:40:35;;;;;;;7.25;5.95;;;12.80;97.50;;;;;;5113873;27;20024;-72
2023/05/13 12:43:02;;;;;;;9.68;6.28;;;12.60;97.90;;;;;;5115133;28;20296;-73